Antonello — IKVS — position and weather

sailwx.info

Track history (hours):
 
Tides and Currents Weather Stations Pressure Air Temp Water Temp Dewpoint Dewpoint Depression Visibility Wind Speed Wind Dir Waves Ship Positions

Antonello

Last reported at 2014-Sep-17 08:33 UTC. Time now 2014-Sep-18 03:37 UTC.
Position N 36°42' E 014°32'.

Length 70 m; draft 2.5 m.

Type: Ship. MMSI: 247422000.

Date/timePositionNaut miles runAvg speedWind from/ knotsBaromVisibWave heightAir tempDewpointWater temp
2014-Sep-17 08:33N 36°42' E 014°32'8 8.5
2014-Sep-17 07:33N 36°46' E 014°23'8 8.5
2014-Sep-17 06:33N 36°51' E 014°14'8 8.4
2014-Sep-17 05:33N 36°54' E 014°04'8 8.1
2014-Sep-17 04:34N 36°58' E 013°56'8 8.3
2014-Sep-17 03:34N 37°02' E 013°46'86 2.3
2014-Sep-15 14:31N 38°15' E 012°49'9 9.0
2014-Sep-15 13:33N 38°16' E 013°00'9 8.9
2014-Sep-15 12:33N 38°16' E 013°12'9 8.8
2014-Sep-15 11:33N 38°15' E 013°23'8 7.6
2014-Sep-15 10:33N 38°08' E 013°24'2 1.5
2014-Sep-15 09:33N 38°08' E 013°22'0 0.0
2014-Sep-15 08:32N 38°08' E 013°22'0 0.0
2014-Sep-15 07:29N 38°08' E 013°22'0 0.0
2014-Sep-15 06:31N 38°08' E 013°22'0 0.0
2014-Sep-15 05:33N 38°08' E 013°22'0 0.0
2014-Sep-15 04:33N 38°08' E 013°22'0 0.0
2014-Sep-15 03:33N 38°08' E 013°22'0 0.0
2014-Sep-15 02:33N 38°08' E 013°22'0 0.0
2014-Sep-15 01:33N 38°08' E 013°22'0 0.0
2014-Sep-15 00:33N 38°08' E 013°22'0 0.0
2014-Sep-14 23:33N 38°08' E 013°22'0 0.0
2014-Sep-14 22:33N 38°08' E 013°22'0 0.0
2014-Sep-14 21:33N 38°08' E 013°22'3 3.5
2014-Sep-14 20:33N 38°11' E 013°24'8 7.5
2014-Sep-14 19:33N 38°16' E 013°18'9 9.2
2014-Sep-14 18:33N 38°16' E 013°06'10 9.1
2014-Sep-14 17:28N 38°15' E 012°54'6 0.2
2014-Sep-13 15:28N 38°15' E 012°47'8 8.2
2014-Sep-13 14:33N 38°16' E 012°56'8 8.2
2014-Sep-13 13:33N 38°16' E 013°07'8 8.0
2014-Sep-13 12:34N 38°16' E 013°17'7 7.4
2014-Sep-13 11:34N 38°12' E 013°24'5 4.6
2014-Sep-13 10:34N 38°08' E 013°22'0 0.1
2014-Sep-13 09:34N 38°08' E 013°22'0 0.0
2014-Sep-13 08:34N 38°08' E 013°22'0 0.0
2014-Sep-13 07:34N 38°08' E 013°22'0 0.0
2014-Sep-13 06:34N 38°08' E 013°22'0 0.0
2014-Sep-13 05:33N 38°08' E 013°22'0 0.0
2014-Sep-13 04:33N 38°08' E 013°22'0 0.0
2014-Sep-13 03:34N 38°08' E 013°22'0 0.0
2014-Sep-13 02:34N 38°08' E 013°22'0 0.0
2014-Sep-13 01:34N 38°08' E 013°22'0 0.0
2014-Sep-13 00:33N 38°08' E 013°22'0 0.1
2014-Sep-12 23:34N 38°08' E 013°22'3 3.4
2014-Sep-12 22:34N 38°11' E 013°24'8 7.8
2014-Sep-12 21:34N 38°17' E 013°18'9 9.4
2014-Sep-12 20:34N 38°17' E 013°06'10 9.0
2014-Sep-12 19:30N 38°16' E 012°54'5 0.2
2014-Sep-11 21:16N 38°15' E 012°47'5 6.7
2014-Sep-11 20:33N 38°15' E 012°54'9 8.6
2014-Sep-11 19:33N 38°16' E 013°05'8 8.3
2014-Sep-11 18:33N 38°16' E 013°15'8 7.5
2014-Sep-11 17:33N 38°14' E 013°24'7 6.5
2014-Sep-11 16:33N 38°07' E 013°23'1 0.9
2014-Sep-11 15:32N 38°08' E 013°22'0 0.0
2014-Sep-11 14:31N 38°08' E 013°22'0 0.0
2014-Sep-11 13:30N 38°08' E 013°22'0 0.0
2014-Sep-11 12:30N 38°08' E 013°22'0 0.0
2014-Sep-11 11:32N 38°08' E 013°22'0 0.0
2014-Sep-11 10:29N 38°08' E 013°22'94 5.3
2014-Sep-10 16:33N 37°04' E 011°54'1010.1
2014-Sep-10 15:33N 36°54' E 011°54'8 8.4
2014-Sep-10 14:33N 36°46' E 011°57'1 0.5
2014-Sep-10 13:32N 36°46' E 011°58'0 0.1
2014-Sep-10 12:31N 36°46' E 011°58'0 0.0
2014-Sep-10 11:31N 36°46' E 011°58'0 0.0
2014-Sep-10 10:33N 36°46' E 011°58'0 0.0
2014-Sep-10 09:32N 36°46' E 011°58'0 0.0
2014-Sep-10 08:32N 36°46' E 011°58'0 0.0
2014-Sep-10 07:31N 36°46' E 011°58'0 0.0
2014-Sep-10 06:31N 36°46' E 011°58'0 0.0
2014-Sep-10 05:33N 36°46' E 011°58'2 2.3
2014-Sep-10 04:34N 36°47' E 011°55'17 8.2
2014-Sep-10 02:30N 37°04' E 011°52'96 4.8
2014-Sep-09 06:22N 38°08' E 013°22'0 0.0
2014-Sep-09 05:31N 38°08' E 013°22'0 0.0
2014-Sep-09 04:33N 38°08' E 013°22'0 0.0
2014-Sep-09 03:33N 38°08' E 013°22'0 0.0
2014-Sep-09 02:32N 38°08' E 013°22'0 0.0
2014-Sep-09 01:31N 38°08' E 013°22'0 0.0
2014-Sep-09 00:31N 38°08' E 013°22'0 0.0
2014-Sep-08 23:33N 38°08' E 013°22'0 0.0
2014-Sep-08 22:30N 38°08' E 013°22'0 0.0
2014-Sep-08 21:32N 38°08' E 013°22'0 0.0
2014-Sep-08 20:31N 38°08' E 013°22'0 0.0
2014-Sep-08 19:28N 38°08' E 013°22'0 0.0
2014-Sep-08 18:27N 38°08' E 013°22'1 1.3
2014-Sep-08 17:33N 38°08' E 013°23'7 7.1
2014-Sep-08 16:33N 38°15' E 013°22'9 8.6
2014-Sep-08 15:33N 38°16' E 013°11'9 9.2
2014-Sep-08 14:33N 38°15' E 012°60'99 7.6
2014-Sep-08 01:33N 36°52' E 011°53'7 6.8
2014-Sep-08 00:33N 36°46' E 011°58'0 0.0
2014-Sep-07 23:34N 36°46' E 011°58'0 0.0
2014-Sep-07 22:33N 36°46' E 011°58'0 0.0
2014-Sep-07 21:32N 36°46' E 011°58'0 0.0
2014-Sep-07 20:31N 36°46' E 011°58'0 0.0
2014-Sep-07 19:31N 36°46' E 011°58'0 0.0
2014-Sep-07 18:33N 36°46' E 011°58'  
Track history (hours):
 
Tides and Currents Weather Stations Pressure Air Temp Water Temp Dewpoint Dewpoint Depression Visibility Wind Speed Wind Dir Waves Ship Positions

Antonello

Last reported at 2014-Sep-17 08:33 UTC. Time now 2014-Sep-18 03:37 UTC.
Position N 36°42' E 014°32'.

Length 70 m; draft 2.5 m.

Type: Ship. MMSI: 247422000.

Date/timePositionNaut miles runAvg speedWind from/ knotsBaromVisibWave heightAir tempDewpointWater temp
2014-Sep-17 08:33N 36°42' E 014°32'8 8.5
2014-Sep-17 07:33N 36°46' E 014°23'8 8.5
2014-Sep-17 06:33N 36°51' E 014°14'8 8.4
2014-Sep-17 05:33N 36°54' E 014°04'8 8.1
2014-Sep-17 04:34N 36°58' E 013°56'8 8.3
2014-Sep-17 03:34N 37°02' E 013°46'86 2.3
2014-Sep-15 14:31N 38°15' E 012°49'9 9.0
2014-Sep-15 13:33N 38°16' E 013°00'9 8.9
2014-Sep-15 12:33N 38°16' E 013°12'9 8.8
2014-Sep-15 11:33N 38°15' E 013°23'8 7.6
2014-Sep-15 10:33N 38°08' E 013°24'2 1.5
2014-Sep-15 09:33N 38°08' E 013°22'0 0.0
2014-Sep-15 08:32N 38°08' E 013°22'0 0.0
2014-Sep-15 07:29N 38°08' E 013°22'0 0.0
2014-Sep-15 06:31N 38°08' E 013°22'0 0.0
2014-Sep-15 05:33N 38°08' E 013°22'0 0.0
2014-Sep-15 04:33N 38°08' E 013°22'0 0.0
2014-Sep-15 03:33N 38°08' E 013°22'0 0.0
2014-Sep-15 02:33N 38°08' E 013°22'0 0.0
2014-Sep-15 01:33N 38°08' E 013°22'0 0.0
2014-Sep-15 00:33N 38°08' E 013°22'0 0.0
2014-Sep-14 23:33N 38°08' E 013°22'0 0.0
2014-Sep-14 22:33N 38°08' E 013°22'0 0.0
2014-Sep-14 21:33N 38°08' E 013°22'3 3.5
2014-Sep-14 20:33N 38°11' E 013°24'8 7.5
2014-Sep-14 19:33N 38°16' E 013°18'9 9.2
2014-Sep-14 18:33N 38°16' E 013°06'10 9.1
2014-Sep-14 17:28N 38°15' E 012°54'6 0.2
2014-Sep-13 15:28N 38°15' E 012°47'8 8.2
2014-Sep-13 14:33N 38°16' E 012°56'8 8.2
2014-Sep-13 13:33N 38°16' E 013°07'8 8.0
2014-Sep-13 12:34N 38°16' E 013°17'7 7.4
2014-Sep-13 11:34N 38°12' E 013°24'5 4.6
2014-Sep-13 10:34N 38°08' E 013°22'0 0.1
2014-Sep-13 09:34N 38°08' E 013°22'0 0.0
2014-Sep-13 08:34N 38°08' E 013°22'0 0.0
2014-Sep-13 07:34N 38°08' E 013°22'0 0.0
2014-Sep-13 06:34N 38°08' E 013°22'0 0.0
2014-Sep-13 05:33N 38°08' E 013°22'0 0.0
2014-Sep-13 04:33N 38°08' E 013°22'0 0.0
2014-Sep-13 03:34N 38°08' E 013°22'0 0.0
2014-Sep-13 02:34N 38°08' E 013°22'0 0.0
2014-Sep-13 01:34N 38°08' E 013°22'0 0.0
2014-Sep-13 00:33N 38°08' E 013°22'0 0.1
2014-Sep-12 23:34N 38°08' E 013°22'3 3.4
2014-Sep-12 22:34N 38°11' E 013°24'8 7.8
2014-Sep-12 21:34N 38°17' E 013°18'9 9.4
2014-Sep-12 20:34N 38°17' E 013°06'10 9.0
2014-Sep-12 19:30N 38°16' E 012°54'5 0.2
2014-Sep-11 21:16N 38°15' E 012°47'5 6.7
2014-Sep-11 20:33N 38°15' E 012°54'9 8.6
2014-Sep-11 19:33N 38°16' E 013°05'8 8.3
2014-Sep-11 18:33N 38°16' E 013°15'8 7.5
2014-Sep-11 17:33N 38°14' E 013°24'7 6.5
2014-Sep-11 16:33N 38°07' E 013°23'1 0.9
2014-Sep-11 15:32N 38°08' E 013°22'0 0.0
2014-Sep-11 14:31N 38°08' E 013°22'0 0.0
2014-Sep-11 13:30N 38°08' E 013°22'0 0.0
2014-Sep-11 12:30N 38°08' E 013°22'0 0.0
2014-Sep-11 11:32N 38°08' E 013°22'0 0.0
2014-Sep-11 10:29N 38°08' E 013°22'94 5.3
2014-Sep-10 16:33N 37°04' E 011°54'1010.1
2014-Sep-10 15:33N 36°54' E 011°54'8 8.4
2014-Sep-10 14:33N 36°46' E 011°57'1 0.5
2014-Sep-10 13:32N 36°46' E 011°58'0 0.1
2014-Sep-10 12:31N 36°46' E 011°58'0 0.0
2014-Sep-10 11:31N 36°46' E 011°58'0 0.0
2014-Sep-10 10:33N 36°46' E 011°58'0 0.0
2014-Sep-10 09:32N 36°46' E 011°58'0 0.0
2014-Sep-10 08:32N 36°46' E 011°58'0 0.0
2014-Sep-10 07:31N 36°46' E 011°58'0 0.0
2014-Sep-10 06:31N 36°46' E 011°58'0 0.0
2014-Sep-10 05:33N 36°46' E 011°58'2 2.3
2014-Sep-10 04:34N 36°47' E 011°55'17 8.2
2014-Sep-10 02:30N 37°04' E 011°52'96 4.8
2014-Sep-09 06:22N 38°08' E 013°22'0 0.0
2014-Sep-09 05:31N 38°08' E 013°22'0 0.0
2014-Sep-09 04:33N 38°08' E 013°22'0 0.0
2014-Sep-09 03:33N 38°08' E 013°22'0 0.0
2014-Sep-09 02:32N 38°08' E 013°22'0 0.0
2014-Sep-09 01:31N 38°08' E 013°22'0 0.0
2014-Sep-09 00:31N 38°08' E 013°22'0 0.0
2014-Sep-08 23:33N 38°08' E 013°22'0 0.0
2014-Sep-08 22:30N 38°08' E 013°22'0 0.0
2014-Sep-08 21:32N 38°08' E 013°22'0 0.0
2014-Sep-08 20:31N 38°08' E 013°22'0 0.0
2014-Sep-08 19:28N 38°08' E 013°22'0 0.0
2014-Sep-08 18:27N 38°08' E 013°22'1 1.3
2014-Sep-08 17:33N 38°08' E 013°23'7 7.1
2014-Sep-08 16:33N 38°15' E 013°22'9 8.6
2014-Sep-08 15:33N 38°16' E 013°11'9 9.2
2014-Sep-08 14:33N 38°15' E 012°60'99 7.6
2014-Sep-08 01:33N 36°52' E 011°53'7 6.8
2014-Sep-08 00:33N 36°46' E 011°58'0 0.0
2014-Sep-07 23:34N 36°46' E 011°58'0 0.0
2014-Sep-07 22:33N 36°46' E 011°58'0 0.0
2014-Sep-07 21:32N 36°46' E 011°58'0 0.0
2014-Sep-07 20:31N 36°46' E 011°58'0 0.0
2014-Sep-07 19:31N 36°46' E 011°58'0 0.0
2014-Sep-07 18:33N 36°46' E 011°58'  

Dump ship's entire track history